Time;durP1;ratioP1;P1;durP2;ratioP2;P2;SDS_P1;SDS_P2;PMS_P1;PMS_P2;Temp;Humidity;BMP_temperature;BMP_pressure;BME280_temperature;BME280_humidity;BME280_pressure;Samples;Min_cycle;Max_cycle;Signal;HPM_P1;HPM_P2
2022/05/27 00:00:14;;;;;;;11.93;5.47;;;16.70;99.90;;;;;;5013000;28;20044;-75
2022/05/27 00:02:40;;;;;;;17.60;5.93;;;16.80;99.90;;;;;;5012314;28;20049;-73
2022/05/27 00:05:06;;;;;;;13.02;5.60;;;16.90;99.90;;;;;;5010823;28;20061;-74
2022/05/27 00:07:31;;;;;;;10.65;5.55;;;17.00;99.90;;;;;;5012049;28;20034;-74
2022/05/27 00:09:57;;;;;;;14.68;5.35;;;17.00;99.90;;;;;;5012177;28;20025;-74
2022/05/27 00:12:23;;;;;;;14.20;5.32;;;17.00;99.90;;;;;;5012891;28;20056;-74
2022/05/27 00:14:48;;;;;;;14.35;4.97;;;16.80;99.90;;;;;;5012241;28;20026;-75
2022/05/27 00:17:14;;;;;;;17.73;5.78;;;16.90;99.90;;;;;;5012064;28;20034;-74
2022/05/27 00:19:41;;;;;;;21.10;8.57;;;16.90;99.90;;;;;;5012098;28;20072;-74
2022/05/27 00:22:08;;;;;;;11.82;4.55;;;16.90;99.90;;;;;;5011950;28;20041;-75
2022/05/27 00:24:36;;;;;;;9.00;4.22;;;16.80;99.90;;;;;;5012372;28;20025;-74
2022/05/27 00:27:02;;;;;;;10.35;4.20;;;16.80;99.90;;;;;;5011952;28;20030;-74
2022/05/27 00:29:28;;;;;;;12.00;4.47;;;16.90;99.90;;;;;;5010724;28;20373;-74
2022/05/27 00:31:54;;;;;;;16.92;4.75;;;16.80;99.90;;;;;;5011826;28;20283;-73
2022/05/27 00:34:20;;;;;;;13.27;4.65;;;16.80;99.90;;;;;;5011832;28;20459;-74
2022/05/27 00:36:46;;;;;;;9.77;4.03;;;16.80;99.90;;;;;;5010781;28;20029;-74
2022/05/27 00:39:11;;;;;;;12.40;5.00;;;16.80;99.90;;;;;;5012303;28;20530;-75
2022/05/27 00:41:37;;;;;;;12.23;3.92;;;16.80;99.90;;;;;;5010506;28;20069;-75
2022/05/27 00:44:03;;;;;;;12.18;4.82;;;16.80;99.90;;;;;;5011900;28;20124;-76
2022/05/27 00:46:32;;;;;;;13.55;5.15;;;16.70;99.90;;;;;;5011675;28;20038;-74
2022/05/27 00:49:18;;;;;;;18.50;4.95;;;16.70;99.90;;;;;;5010473;28;20084;-73
2022/05/27 00:51:53;;;;;;;11.63;4.57;;;16.70;99.90;;;;;;5010600;28;20490;-75
2022/05/27 00:54:25;;;;;;;9.77;4.55;;;16.70;99.90;;;;;;5027404;28;20033;-74
2022/05/27 00:56:57;;;;;;;15.68;4.90;;;16.70;99.90;;;;;;5011642;28;20030;-73
2022/05/27 00:59:42;;;;;;;11.63;4.75;;;16.80;99.90;;;;;;5010475;28;20038;-73
2022/05/27 01:02:07;;;;;;;11.07;4.55;;;16.80;99.90;;;;;;5011245;28;20395;-74
2022/05/27 01:04:35;;;;;;;9.75;4.82;;;16.80;99.90;;;;;;5010096;28;20444;-73
2022/05/27 01:07:00;;;;;;;12.10;5.38;;;16.80;99.90;;;;;;5010981;28;20524;-74
2022/05/27 01:09:29;;;;;;;11.70;5.45;;;16.80;99.90;;;;;;5011622;28;20118;-73
2022/05/27 01:12:16;;;;;;;8.85;4.85;;;16.80;99.90;;;;;;5011209;28;20033;-73
2022/05/27 01:15:06;;;;;;;12.20;5.27;;;16.80;99.90;;;;;;5011233;28;20061;-74
2022/05/27 01:17:58;;;;;;;11.57;5.38;;;16.70;99.90;;;;;;5010024;28;20745;-73
2022/05/27 01:20:56;;;;;;;8.05;4.93;;;16.70;99.90;;;;;;5009975;28;20145;-74
2022/05/27 01:23:50;;;;;;;7.15;4.63;;;16.50;99.90;;;;;;5010923;28;20026;-75
2022/05/27 01:26:37;;;;;;;10.77;4.15;;;16.50;99.90;;;;;;5010861;28;20033;-76
2022/05/27 01:29:34;;;;;;;10.45;4.85;;;16.60;99.90;;;;;;5010988;28;20052;-74
2022/05/27 01:32:08;;;;;;;10.57;5.45;;;16.50;99.90;;;;;;5010863;28;20065;-73
2022/05/27 01:34:56;;;;;;;12.15;4.85;;;16.50;99.90;;;;;;5010745;28;20084;-74
2022/05/27 01:37:53;;;;;;;10.00;4.90;;;16.50;99.90;;;;;;5010708;28;20109;-74
2022/05/27 01:40:31;;;;;;;7.88;5.03;;;16.50;99.90;;;;;;5009239;28;20050;-74
2022/05/27 01:43:10;;;;;;;13.35;5.85;;;16.40;99.90;;;;;;5010892;28;20033;-74
2022/05/27 01:45:56;;;;;;;13.60;7.07;;;16.30;99.90;;;;;;5011246;28;20117;-74
2022/05/27 01:48:41;;;;;;;16.83;6.47;;;16.30;99.90;;;;;;5011434;28;20063;-74
2022/05/27 01:51:16;;;;;;;11.63;6.85;;;16.40;99.90;;;;;;5011400;28;20022;-74
2022/05/27 01:54:10;;;;;;;13.20;6.32;;;16.30;99.90;;;;;;5019407;28;20140;-75
2022/05/27 01:57:12;;;;;;;9.27;5.90;;;16.20;99.90;;;;;;5017645;28;20065;-72
2022/05/27 01:59:49;;;;;;;12.55;7.13;;;16.20;99.90;;;;;;5017896;28;20125;-73
2022/05/27 02:02:23;;;;;;;9.75;6.45;;;16.30;99.90;;;;;;5019133;28;20030;-74
2022/05/27 02:04:52;;;;;;;13.23;7.07;;;16.30;99.90;;;;;;5008047;28;20025;-74
2022/05/27 02:07:25;;;;;;;11.30;6.93;;;16.10;99.90;;;;;;5017045;28;20455;-73
2022/05/27 02:09:58;;;;;;;11.93;6.97;;;16.10;99.90;;;;;;5016933;28;20033;-73
2022/05/27 02:12:33;;;;;;;8.77;7.55;;;16.20;99.90;;;;;;5017592;28;20026;-74
2022/05/27 02:15:10;;;;;;;13.43;8.30;;;16.10;99.90;;;;;;5016872;28;20034;-74
2022/05/27 02:17:41;;;;;;;9.93;7.35;;;16.10;99.90;;;;;;5017025;28;20034;-74
2022/05/27 02:20:14;;;;;;;17.23;8.85;;;16.20;99.90;;;;;;5015861;28;20065;-73
2022/05/27 02:22:47;;;;;;;9.48;7.60;;;16.20;99.90;;;;;;5016831;28;20503;-74
2022/05/27 02:25:28;;;;;;;10.35;7.43;;;16.10;99.90;;;;;;5016725;28;20066;-73
2022/05/27 02:28:01;;;;;;;10.93;6.70;;;16.20;99.90;;;;;;5016737;28;20022;-73
2022/05/27 02:30:29;;;;;;;4.13;2.50;;;15.90;99.90;;;;;;5017173;28;20053;-74
2022/05/27 02:35:48;;;;;;;2.53;1.42;;;15.40;99.90;;;;;;5016697;28;20041;-74
2022/05/27 02:38:14;;;;;;;2.22;1.13;;;15.40;99.90;;;;;;5016745;28;20488;-75
2022/05/27 02:40:54;;;;;;;3.75;1.27;;;15.40;99.90;;;;;;5016442;28;20074;-74
2022/05/27 02:43:41;;;;;;;4.93;1.15;;;15.30;99.90;;;;;;5016925;28;20092;-73
2022/05/27 02:47:03;;;;;;;2.13;1.10;;;15.20;99.90;;;;;;5015437;28;20072;-74
2022/05/27 02:49:56;;;;;;;5.10;1.23;;;15.10;99.90;;;;;;5017566;28;20036;-73
2022/05/27 02:52:35;;;;;;;4.13;1.00;;;15.00;99.90;;;;;;5034036;28;20056;-74
2022/05/27 02:55:06;;;;;;;1.40;1.00;;;14.90;99.90;;;;;;5018941;28;20076;-74
2022/05/27 02:57:44;;;;;;;2.75;0.90;;;15.00;99.90;;;;;;5016811;28;20028;-74
2022/05/27 03:00:18;;;;;;;5.28;1.35;;;15.00;99.90;;;;;;5016483;28;20034;-73
2022/05/27 03:02:44;;;;;;;1.77;1.10;;;15.00;99.90;;;;;;5015310;28;20229;-73
2022/05/27 03:05:12;;;;;;;2.15;0.95;;;14.90;99.90;;;;;;5012307;28;20030;-73
2022/05/27 03:07:44;;;;;;;5.50;1.00;;;14.80;99.90;;;;;;5012211;28;20034;-74
2022/05/27 03:10:28;;;;;;;3.17;1.23;;;14.70;99.90;;;;;;5013357;28;20034;-75
2022/05/27 03:13:00;;;;;;;3.13;1.20;;;14.80;99.90;;;;;;5012180;28;20594;-74
2022/05/27 03:15:50;;;;;;;3.20;1.30;;;14.70;99.90;;;;;;5012515;28;20038;-74
2022/05/27 03:18:36;;;;;;;2.17;1.27;;;14.80;99.90;;;;;;5013451;28;20101;-73
2022/05/27 03:21:26;;;;;;;5.13;1.40;;;14.90;99.90;;;;;;5011795;28;20091;-73
2022/05/27 03:24:07;;;;;;;2.10;1.52;;;14.80;99.90;;;;;;5013158;28;20026;-74
2022/05/27 03:26:57;;;;;;;3.72;1.25;;;14.90;99.90;;;;;;5013025;28;20483;-73
2022/05/27 03:29:28;;;;;;;3.42;1.52;;;14.80;99.90;;;;;;5011974;28;20336;-74
2022/05/27 03:32:27;;;;;;;1.63;1.20;;;14.80;99.90;;;;;;5013191;28;20049;-75
2022/05/27 03:35:07;;;;;;;3.17;1.35;;;14.80;99.90;;;;;;5012960;28;20068;-74
2022/05/27 03:37:39;;;;;;;2.30;1.20;;;14.80;99.90;;;;;;5012745;28;20104;-73
2022/05/27 03:40:20;;;;;;;2.15;1.27;;;14.70;99.90;;;;;;5012814;28;20022;-75
2022/05/27 03:42:46;;;;;;;2.67;1.25;;;14.60;99.90;;;;;;5012749;28;20411;-74
2022/05/27 03:45:15;;;;;;;2.53;1.17;;;14.60;99.90;;;;;;5013186;28;20119;-74
2022/05/27 03:47:43;;;;;;;3.08;1.20;;;14.60;99.90;;;;;;5011534;28;20038;-73
2022/05/27 03:50:22;;;;;;;0.90;0.90;;;14.70;99.90;;;;;;5012474;28;20049;-74
2022/05/27 03:52:50;;;;;;;2.25;1.33;;;14.80;99.90;;;;;;5012454;28;20121;-74
2022/05/27 03:55:19;;;;;;;4.75;1.50;;;14.70;99.90;;;;;;5011415;28;20057;-75
2022/05/27 03:57:45;;;;;;;4.13;1.75;;;14.70;99.90;;;;;;5011168;28;20044;-74
2022/05/27 04:00:13;;;;;;;9.27;1.20;;;14.70;99.90;;;;;;5012841;28;20440;-74
2022/05/27 04:02:39;;;;;;;1.85;1.20;;;14.70;99.90;;;;;;5012309;28;20723;-73
2022/05/27 04:05:06;;;;;;;2.22;1.40;;;14.80;99.90;;;;;;5012384;28;20036;-73
2022/05/27 04:07:32;;;;;;;3.25;1.52;;;14.80;99.90;;;;;;5012289;28;20044;-74
2022/05/27 04:09:57;;;;;;;2.95;1.77;;;14.80;99.90;;;;;;5012211;28;20029;-74
2022/05/27 04:12:23;;;;;;;2.70;1.35;;;14.70;99.90;;;;;;5011494;28;20029;-74
2022/05/27 04:14:50;;;;;;;3.50;1.60;;;14.70;99.90;;;;;;5011829;28;20546;-74
2022/05/27 04:17:30;;;;;;;3.17;1.70;;;14.70;99.90;;;;;;5012054;28;20033;-74
2022/05/27 04:19:57;;;;;;;4.45;1.95;;;14.70;99.90;;;;;;5011781;28;20427;-74
2022/05/27 04:22:23;;;;;;;2.70;1.75;;;14.70;99.90;;;;;;5010783;28;20522;-75
2022/05/27 04:24:49;;;;;;;6.40;1.83;;;14.70;99.90;;;;;;5012093;28;20030;-74
2022/05/27 04:27:17;;;;;;;9.52;2.28;;;14.70;99.90;;;;;;5012329;28;20021;-74
2022/05/27 04:29:44;;;;;;;;;;;14.70;99.90;;;;;;5012538;28;20116;-74
2022/05/27 04:32:10;;;;;;;2.88;1.95;;;14.70;99.90;;;;;;5011998;28;19913;-74
2022/05/27 04:34:36;;;;;;;7.95;2.50;;;14.70;99.90;;;;;;5011635;28;20037;-74
2022/05/27 04:37:02;;;;;;;3.38;2.50;;;14.70;99.90;;;;;;5010499;28;20026;-74
2022/05/27 04:39:28;;;;;;;6.72;2.83;;;14.70;99.90;;;;;;5012204;28;20529;-75
2022/05/27 04:41:54;;;;;;;5.90;2.50;;;14.70;99.90;;;;;;5011279;28;20045;-74
2022/05/27 04:44:19;;;;;;;5.78;2.10;;;14.80;99.90;;;;;;5011458;28;20490;-74
2022/05/27 04:46:45;;;;;;;11.07;2.92;;;14.90;99.90;;;;;;5011514;28;20042;-75
2022/05/27 04:49:50;;;;;;;6.13;2.10;;;15.00;99.90;;;;;;5011870;28;20022;-75
2022/05/27 04:51:58;;;;;;;3.30;2.22;;;15.00;99.90;;;;;;5011279;28;20048;-75
2022/05/27 04:54:23;;;;;;;8.20;2.33;;;15.00;99.90;;;;;;5011960;28;20350;-74
2022/05/27 04:56:49;;;;;;;6.43;2.58;;;15.00;99.90;;;;;;5011597;28;20037;-75
2022/05/27 04:59:15;;;;;;;7.95;2.63;;;15.00;99.90;;;;;;5011417;28;20044;-75
2022/05/27 05:01:41;;;;;;;8.82;2.63;;;14.90;99.90;;;;;;5011090;28;20029;-75
2022/05/27 05:04:06;;;;;;;7.95;2.72;;;15.00;99.90;;;;;;5011056;28;20064;-74
2022/05/27 05:06:32;;;;;;;10.52;2.95;;;15.10;99.90;;;;;;5011519;28;20353;-75
2022/05/27 05:08:58;;;;;;;5.28;2.60;;;15.10;99.90;;;;;;5011125;28;20528;-75
2022/05/27 05:11:23;;;;;;;6.65;2.45;;;15.20;99.90;;;;;;5011164;28;20048;-74
2022/05/27 05:13:49;;;;;;;10.27;2.70;;;15.30;99.90;;;;;;5011156;28;20026;-74
2022/05/27 05:16:14;;;;;;;10.55;3.10;;;15.20;99.90;;;;;;5010027;28;20030;-73
2022/05/27 05:18:40;;;;;;;7.07;3.15;;;15.30;99.90;;;;;;5011400;28;20026;-72
2022/05/27 05:21:06;;;;;;;6.03;2.53;;;15.20;99.90;;;;;;5011122;28;20025;-74
2022/05/27 05:23:32;;;;;;;5.35;2.47;;;15.40;99.90;;;;;;5011079;28;20034;-75
2022/05/27 05:25:57;;;;;;;7.85;2.97;;;15.50;99.90;;;;;;5010890;28;20080;-73
2022/05/27 05:28:23;;;;;;;6.38;2.58;;;15.50;99.90;;;;;;5010005;28;20104;-74
2022/05/27 05:30:48;;;;;;;11.73;2.60;;;15.60;99.90;;;;;;5010654;28;20737;-75
2022/05/27 05:33:14;;;;;;;11.63;3.17;;;15.70;99.90;;;;;;5011500;28;20034;-74
2022/05/27 05:35:40;;;;;;;7.10;2.55;;;15.80;99.90;;;;;;5010938;28;20061;-74
2022/05/27 05:38:06;;;;;;;11.05;3.22;;;15.60;99.90;;;;;;5010918;28;20087;-74
2022/05/27 05:40:32;;;;;;;8.15;2.47;;;15.50;99.90;;;;;;5010494;28;20042;-74
2022/05/27 05:43:00;;;;;;;11.68;2.78;;;15.30;99.90;;;;;;5010642;28;20464;-75
2022/05/27 05:45:25;;;;;;;;;;;15.30;99.90;;;;;;5011983;28;20018;-74
2022/05/27 05:47:51;;;;;;;10.40;2.40;;;15.40;99.90;;;;;;5009443;28;19940;-75
2022/05/27 05:50:17;;;;;;;10.82;3.10;;;15.30;99.90;;;;;;5011110;28;20478;-73
2022/05/27 05:52:44;;;;;;;11.70;4.03;;;15.40;99.90;;;;;;5009459;28;20038;-74
2022/05/27 05:55:12;;;;;;;10.82;3.42;;;15.40;99.90;;;;;;5010752;28;20034;-74
2022/05/27 05:57:41;;;;;;;13.60;3.45;;;15.30;99.90;;;;;;5011244;28;20474;-75
2022/05/27 06:00:09;;;;;;;6.68;2.55;;;15.30;99.90;;;;;;5010816;28;20045;-76
2022/05/27 06:02:34;;;;;;;14.18;3.45;;;15.30;99.90;;;;;;5009520;28;20034;-77
2022/05/27 06:05:03;;;;;;;9.32;2.63;;;15.20;99.90;;;;;;5009405;28;20363;-76
2022/05/27 06:07:30;;;;;;;12.98;2.70;;;15.30;99.90;;;;;;5010429;28;20033;-75
2022/05/27 06:09:55;;;;;;;10.43;2.97;;;15.20;99.90;;;;;;5010778;28;20045;-74
2022/05/27 06:12:23;;;;;;;7.68;2.70;;;15.30;99.90;;;;;;5009871;28;20022;-76
2022/05/27 06:14:50;;;;;;;7.55;2.35;;;15.30;99.90;;;;;;5010512;28;20173;-78
2022/05/27 06:17:16;;;;;;;12.15;2.65;;;15.50;99.90;;;;;;5010509;28;20037;-74
2022/05/27 06:19:42;;;;;;;10.75;2.55;;;15.50;99.90;;;;;;5010399;28;20046;-73
2022/05/27 06:22:07;;;;;;;8.38;2.17;;;15.60;99.90;;;;;;5010668;28;20550;-72
2022/05/27 06:24:33;;;;;;;7.60;2.47;;;15.70;99.90;;;;;;5010805;28;20022;-73
2022/05/27 06:27:00;;;;;;;8.65;2.50;;;15.70;99.90;;;;;;5010261;28;20068;-72
2022/05/27 06:34:23;;;;;;;11.48;2.33;;;15.70;99.90;;;;;;5010371;28;20116;-73
2022/05/27 06:34:59;;;;;;;10.27;2.28;;;15.80;99.90;;;;;;5009866;28;20135;-73
2022/05/27 06:37:25;;;;;;;10.90;2.63;;;15.70;99.90;;;;;;5025721;28;20034;-77
2022/05/27 06:39:52;;;;;;;6.03;2.03;;;15.80;99.90;;;;;;5013961;28;20025;-79
2022/05/27 06:42:17;;;;;;;11.60;2.63;;;15.90;99.90;;;;;;5013429;28;20140;-76
2022/05/27 06:44:43;;;;;;;10.35;2.95;;;16.10;99.90;;;;;;5013944;28;20034;-73
2022/05/27 06:47:13;;;;;;;11.60;2.90;;;16.10;99.80;;;;;;5012756;28;20041;-74
2022/05/27 06:49:40;;;;;;;8.40;2.35;;;16.10;99.70;;;;;;5012779;28;20025;-76
2022/05/27 06:52:07;;;;;;;10.45;2.55;;;16.10;99.50;;;;;;5013789;28;20033;-77
2022/05/27 06:54:34;;;;;;;13.95;2.42;;;16.10;98.60;;;;;;5029488;28;20080;-75
2022/05/27 06:57:00;;;;;;;9.63;3.20;;;16.30;98.90;;;;;;5013862;28;20388;-76
2022/05/27 06:59:26;;;;;;;8.60;2.40;;;16.30;98.50;;;;;;5012880;28;20033;-76
2022/05/27 07:01:51;;;;;;;8.10;2.42;;;16.40;98.40;;;;;;5013322;28;20034;-76
2022/05/27 07:04:20;;;;;;;14.73;3.08;;;16.60;98.50;;;;;;5013759;28;20026;-77
2022/05/27 07:06:47;;;;;;;12.05;2.45;;;16.70;98.70;;;;;;5013306;28;20448;-77
2022/05/27 07:09:17;;;;;;;11.07;1.85;;;16.50;98.10;;;;;;5013038;28;20113;-76
2022/05/27 07:11:45;;;;;;;9.05;1.90;;;16.40;98.10;;;;;;5013166;28;20379;-77
2022/05/27 07:14:13;;;;;;;11.00;2.13;;;16.50;97.20;;;;;;5013516;28;20125;-77
2022/05/27 07:16:39;;;;;;;10.30;2.03;;;16.60;96.60;;;;;;5013374;28;20367;-75
2022/05/27 07:19:04;;;;;;;8.32;2.05;;;16.50;95.50;;;;;;5013070;28;20121;-77
2022/05/27 07:21:30;;;;;;;7.57;1.77;;;16.70;95.90;;;;;;5013737;28;20354;-78
2022/05/27 07:23:56;;;;;;;11.80;2.42;;;16.50;95.50;;;;;;5013927;28;20075;-79
2022/05/27 07:26:23;;;;;;;10.82;2.22;;;16.60;94.30;;;;;;5013966;28;20049;-78
2022/05/27 07:28:49;;;;;;;6.23;1.67;;;16.50;93.90;;;;;;5013351;28;20068;-77
2022/05/27 07:31:17;;;;;;;8.73;1.95;;;16.60;94.30;;;;;;5012927;28;20046;-80
2022/05/27 07:33:44;;;;;;;9.95;1.85;;;16.60;93.90;;;;;;5013148;28;20459;-77
2022/05/27 07:36:10;;;;;;;6.68;2.03;;;16.60;93.90;;;;;;5012885;28;20112;-77
2022/05/27 07:38:36;;;;;;;11.30;2.53;;;16.60;93.40;;;;;;5013097;28;20107;-74
2022/05/27 07:41:06;;;;;;;8.98;2.03;;;16.50;93.30;;;;;;5012619;28;20563;-75
2022/05/27 07:43:32;;;;;;;6.05;1.83;;;16.50;93.50;;;;;;5012021;28;20084;-75
2022/05/27 07:45:59;;;;;;;14.77;2.55;;;16.60;93.10;;;;;;5012680;28;20037;-80
2022/05/27 07:48:25;;;;;;;11.82;2.20;;;16.80;92.80;;;;;;5012041;28;20133;-75
2022/05/27 07:50:51;;;;;;;11.63;2.38;;;17.10;92.80;;;;;;5012269;28;20034;-77
2022/05/27 07:53:18;;;;;;;8.63;1.88;;;17.20;92.50;;;;;;5027996;28;20018;-76
2022/05/27 07:55:44;;;;;;;15.13;2.15;;;17.40;92.60;;;;;;5012646;28;20529;-76
2022/05/27 07:58:09;;;;;;;11.57;2.60;;;17.40;91.60;;;;;;5012638;28;20050;-76
2022/05/27 08:00:37;;;;;;;7.18;1.63;;;17.70;91.70;;;;;;5012929;28;20514;-77
2022/05/27 08:03:04;;;;;;;9.38;1.88;;;17.90;91.00;;;;;;5012458;28;20107;-79
2022/05/27 08:05:30;;;;;;;8.68;1.95;;;17.90;87.30;;;;;;5012564;28;20489;-78
2022/05/27 08:07:58;;;;;;;8.27;1.65;;;18.20;87.40;;;;;;5011309;28;20038;-77
2022/05/27 08:10:35;;;;;;;9.17;2.00;;;18.40;85.10;;;;;;5012303;28;20487;-76
2022/05/27 08:13:01;;;;;;;6.88;1.58;;;18.70;85.40;;;;;;5011465;28;20378;-76
2022/05/27 08:15:28;;;;;;;12.57;2.00;;;19.30;84.80;;;;;;5012697;28;20036;-76
2022/05/27 08:17:54;;;;;;;9.98;1.92;;;20.10;81.30;;;;;;5012341;28;20030;-78
2022/05/27 08:20:22;;;;;;;10.60;1.85;;;20.80;79.80;;;;;;5012320;28;20138;-76
2022/05/27 08:22:49;;;;;;;10.68;2.22;;;20.90;78.10;;;;;;5010812;28;20029;-74
2022/05/27 08:25:16;;;;;;;5.30;1.42;;;21.10;73.60;;;;;;5012139;28;20530;-76
2022/05/27 08:27:42;;;;;;;8.93;1.85;;;21.10;71.70;;;;;;5012195;28;20136;-75
2022/05/27 08:30:10;;;;;;;5.75;1.73;;;21.70;71.60;;;;;;5011875;28;20109;-77
2022/05/27 08:32:36;;;;;;;7.93;1.85;;;23.10;71.70;;;;;;5011748;28;20109;-76
2022/05/27 08:38:07;;;;;;;12.55;1.98;;;23.60;68.00;;;;;;5011799;28;20514;-77
2022/05/27 08:40:35;;;;;;;9.18;1.90;;;23.90;66.30;;;;;;5011344;28;20041;-75
2022/05/27 08:43:13;;;;;;;11.95;1.85;;;23.50;63.00;;;;;;5011627;28;20026;-75
2022/05/27 08:45:57;;;;;;;8.95;1.98;;;23.60;63.70;;;;;;5012045;28;20459;-73
2022/05/27 08:48:25;;;;;;;10.52;1.95;;;23.60;63.30;;;;;;5011873;28;20046;-75
2022/05/27 08:50:55;;;;;;;5.13;1.60;;;22.80;61.90;;;;;;5011413;28;20026;-76
2022/05/27 08:53:30;;;;;;;8.27;1.48;;;22.80;61.90;;;;;;5010346;28;20468;-75
2022/05/27 09:02:03;;;;;;;5.00;1.75;;;22.50;61.10;;;;;;4999018;28;20170;-74
2022/05/27 09:04:53;;;;;;;6.20;1.77;;;22.60;60.50;;;;;;5020896;28;20034;-74
2022/05/27 09:07:41;;;;;;;8.02;1.77;;;22.90;58.20;;;;;;5011237;28;20049;-73
2022/05/27 09:10:21;;;;;;;10.40;1.75;;;23.40;60.00;;;;;;5000283;28;20050;-74
2022/05/27 09:12:58;;;;;;;7.15;1.88;;;23.40;56.90;;;;;;5010832;28;20022;-73
2022/05/27 09:15:36;;;;;;;5.85;1.55;;;23.80;56.80;;;;;;5011640;28;20081;-76
2022/05/27 09:18:26;;;;;;;9.20;2.17;;;23.70;56.80;;;;;;5011267;28;20486;-75
2022/05/27 09:21:06;;;;;;;7.72;2.13;;;23.30;56.80;;;;;;4989587;28;20120;-75
2022/05/27 09:23:54;;;;;;;8.55;1.70;;;22.60;57.40;;;;;;5011066;28;20081;-73
2022/05/27 09:26:33;;;;;;;13.70;2.47;;;22.40;56.80;;;;;;5011156;28;20179;-77
2022/05/27 09:29:33;;;;;;;9.10;2.47;;;21.90;57.30;;;;;;5009781;28;20034;-75
2022/05/27 09:32:27;;;;;;;6.60;1.88;;;21.60;58.40;;;;;;5011125;28;20026;-77
2022/05/27 09:34:56;;;;;;;5.57;2.15;;;21.20;59.90;;;;;;5001348;28;20022;-76
2022/05/27 09:37:27;;;;;;;5.05;1.70;;;21.00;61.10;;;;;;5010072;28;20379;-76
2022/05/27 09:39:56;;;;;;;11.90;2.05;;;20.80;61.30;;;;;;5026441;28;20026;-73
2022/05/27 09:42:31;;;;;;;7.07;1.80;;;20.90;62.90;;;;;;5011000;28;20046;-74
2022/05/27 09:44:58;;;;;;;7.97;1.92;;;20.60;61.60;;;;;;5011044;28;20041;-75
2022/05/27 09:47:30;;;;;;;9.52;2.17;;;20.20;61.80;;;;;;5010937;28;20038;-75
2022/05/27 09:50:22;;;;;;;9.93;2.35;;;19.90;63.30;;;;;;5009487;28;20444;-75
2022/05/27 09:52:49;;;;;;;10.90;2.33;;;19.20;66.00;;;;;;5010640;28;20030;-77
2022/05/27 09:55:22;;;;;;;12.90;2.33;;;19.20;66.30;;;;;;5010846;28;20460;-76
2022/05/27 09:58:03;;;;;;;11.40;2.17;;;19.40;66.80;;;;;;5010566;28;20363;-74
2022/05/27 10:00:40;;;;;;;8.10;2.20;;;19.90;66.90;;;;;;5011124;28;20097;-75
2022/05/27 10:03:32;;;;;;;9.02;1.70;;;20.50;66.40;;;;;;5010655;28;20096;-79
2022/05/27 10:06:05;;;;;;;6.75;2.25;;;20.30;67.30;;;;;;5010427;28;20030;-73
2022/05/27 10:08:38;;;;;;;8.23;2.22;;;20.60;67.90;;;;;;5009314;28;20088;-74
2022/05/27 10:11:30;;;;;;;14.55;4.60;;;19.80;69.20;;;;;;5010553;28;20030;-75
2022/05/27 10:14:13;;;;;;;15.13;3.47;;;20.50;70.00;;;;;;5009538;28;20025;-74
2022/05/27 10:16:41;;;;;;;12.60;2.50;;;20.90;69.50;;;;;;5014749;28;20096;-73
2022/05/27 10:19:13;;;;;;;10.85;3.58;;;20.50;69.00;;;;;;5014420;28;20034;-75
2022/05/27 10:21:59;;;;;;;9.70;1.67;;;20.90;69.70;;;;;;5014643;28;20105;-74
2022/05/27 10:24:41;;;;;;;7.47;2.05;;;20.90;68.70;;;;;;5029561;28;20073;-73
2022/05/27 10:27:20;;;;;;;8.43;2.10;;;20.70;69.70;;;;;;5014394;28;20030;-71
2022/05/27 10:29:57;;;;;;;14.18;2.55;;;20.60;67.90;;;;;;5013234;28;20033;-73
2022/05/27 10:32:40;;;;;;;17.30;2.90;;;19.80;67.80;;;;;;5014015;28;20427;-73
2022/05/27 10:35:27;;;;;;;14.88;2.28;;;19.70;68.30;;;;;;5013100;28;20062;-77
2022/05/27 10:38:09;;;;;;;8.40;2.60;;;19.70;68.10;;;;;;5005882;28;20053;-75
2022/05/27 10:40:40;;;;;;;12.57;1.90;;;19.90;67.90;;;;;;5014040;28;20034;-74
2022/05/27 10:43:37;;;;;;;13.18;5.00;;;20.10;67.10;;;;;;5014428;28;20042;-75
2022/05/27 10:46:09;;;;;;;8.10;2.33;;;20.10;66.50;;;;;;5013876;28;20022;-81
2022/05/27 10:49:02;;;;;;;8.10;1.58;;;19.90;66.20;;;;;;5013423;28;20025;-80
2022/05/27 10:52:00;;;;;;;13.50;2.40;;;19.80;65.00;;;;;;5013844;28;20038;-72
2022/05/27 10:54:44;;;;;;;13.38;2.17;;;19.80;65.50;;;;;;5013994;28;20034;-76
2022/05/27 11:03:37;;;;;;;7.82;2.55;;;20.10;62.90;;;;;;5014172;28;20139;-75
2022/05/27 11:06:11;;;;;;;;;;;19.60;61.10;;;;;;5013976;28;20056;-76
2022/05/27 11:08:58;;;;;;;6.65;1.58;;;19.70;62.50;;;;;;5013812;28;19913;-74
2022/05/27 11:11:49;;;;;;;13.10;2.47;;;19.90;62.80;;;;;;5029192;28;20030;-73
2022/05/27 11:15:12;;;;;;;8.13;2.55;;;19.90;63.40;;;;;;5012349;28;20042;-74
2022/05/27 11:17:52;;;;;;;11.07;2.08;;;20.00;60.50;;;;;;5007109;28;20418;-75
2022/05/27 11:20:39;;;;;;;8.70;1.63;;;19.90;60.40;;;;;;5013447;28;20053;-74
2022/05/27 11:23:23;;;;;;;7.40;1.75;;;20.00;59.60;;;;;;5028801;28;20065;-75
2022/05/27 11:26:12;;;;;;;11.73;1.92;;;19.80;58.80;;;;;;5012100;28;20440;-72
2022/05/27 11:29:01;;;;;;;9.65;1.90;;;19.80;58.40;;;;;;5009490;28;20030;-74
2022/05/27 11:31:47;;;;;;;6.57;2.22;;;19.70;58.90;;;;;;5012849;28;20120;-73
2022/05/27 11:34:30;;;;;;;6.18;1.65;;;19.60;58.40;;;;;;5012974;28;20041;-75
2022/05/27 11:37:14;;;;;;;6.65;1.60;;;19.80;58.40;;;;;;5013016;28;20036;-75
2022/05/27 11:39:52;;;;;;;8.00;1.67;;;19.90;58.50;;;;;;5013193;28;20448;-75
2022/05/27 11:42:55;;;;;;;7.82;1.60;;;19.90;57.60;;;;;;5012418;28;20052;-74
2022/05/27 11:45:25;;;;;;;13.88;2.92;;;19.90;57.80;;;;;;5012808;28;20045;-75
2022/05/27 11:48:06;;;;;;;8.73;2.08;;;20.20;58.00;;;;;;5012299;28;20114;-74
2022/05/27 11:50:54;;;;;;;10.25;1.70;;;20.40;57.20;;;;;;5012535;28;20522;-73
2022/05/27 11:53:30;;;;;;;10.75;2.40;;;20.10;56.90;;;;;;5012917;28;20038;-73
2022/05/27 11:56:16;;;;;;;5.72;1.58;;;19.80;57.00;;;;;;5012356;28;20030;-73
2022/05/27 11:58:59;;;;;;;7.07;1.75;;;19.70;57.00;;;;;;5012636;28;20101;-77
2022/05/27 12:01:37;;;;;;;9.68;1.90;;;19.80;57.30;;;;;;5027989;28;20057;-76
2022/05/27 12:04:15;;;;;;;9.35;1.42;;;19.40;56.60;;;;;;5012282;28;20482;-75
2022/05/27 12:06:48;;;;;;;;;;;19.50;56.80;;;;;;5013167;28;20073;-75
2022/05/27 12:09:24;;;;;;;6.70;1.90;;;19.50;56.90;;;;;;5011217;28;20016;-73
2022/05/27 12:12:13;;;;;;;12.90;2.00;;;19.50;57.70;;;;;;5012251;28;20052;-76
2022/05/27 12:14:45;;;;;;;9.18;1.60;;;19.50;57.20;;;;;;5012151;28;20388;-74
2022/05/27 12:17:28;;;;;;;9.20;1.98;;;19.80;57.30;;;;;;5011938;28;20049;-75
2022/05/27 12:19:58;;;;;;;4.47;1.83;;;19.70;57.00;;;;;;5010997;28;20030;-74
2022/05/27 12:22:27;;;;;;;8.52;1.90;;;19.90;57.70;;;;;;5012055;28;20091;-77
2022/05/27 12:25:12;;;;;;;12.40;2.38;;;19.70;57.70;;;;;;5012016;28;20022;-74
2022/05/27 12:27:38;;;;;;;7.80;2.50;;;19.60;57.60;;;;;;5010974;28;20040;-76
2022/05/27 12:30:13;;;;;;;13.75;2.10;;;19.80;58.30;;;;;;5011501;28;20057;-79
2022/05/27 12:32:42;;;;;;;9.48;2.08;;;19.70;58.30;;;;;;5011552;28;20022;-77
2022/05/27 12:35:32;;;;;;;7.43;2.17;;;19.90;58.00;;;;;;5011611;28;20033;-78
2022/05/27 12:38:04;;;;;;;7.35;1.90;;;19.80;58.20;;;;;;5011494;28;20023;-78
2022/05/27 12:40:30;;;;;;;10.00;1.60;;;19.70;58.60;;;;;;5011302;28;20064;-77
2022/05/27 12:43:00;;;;;;;8.70;2.05;;;19.90;58.60;;;;;;5011728;28;20022;-77
2022/05/27 12:45:45;;;;;;;7.10;1.60;;;19.80;57.90;;;;;;5011299;28;20356;-78
2022/05/27 12:48:41;;;;;;;7.40;1.85;;;19.60;57.20;;;;;;5012168;28;20129;-79
2022/05/27 12:51:16;;;;;;;8.05;2.13;;;19.60;57.20;;;;;;5025330;28;20371;-79
2022/05/27 12:53:46;;;;;;;5.50;1.67;;;19.30;57.40;;;;;;5015183;28;20036;-78
2022/05/27 13:02:34;;;;;;;8.93;1.80;;;19.30;55.90;;;;;;5003300;28;20038;-76
2022/05/27 13:05:03;;;;;;;8.27;1.45;;;19.40;56.80;;;;;;5008471;28;20037;-75
2022/05/27 13:07:35;;;;;;;4.70;1.20;;;19.40;55.40;;;;;;5013809;28;20034;-78
2022/05/27 13:10:16;;;;;;;13.10;1.92;;;19.40;54.40;;;;;;5010825;28;20036;-77
2022/05/27 13:12:44;;;;;;;8.85;1.52;;;19.40;55.20;;;;;;5011319;28;20034;-78
2022/05/27 13:15:21;;;;;;;7.53;1.30;;;19.30;55.00;;;;;;5010971;28;20037;-75
2022/05/27 13:17:52;;;;;;;5.13;1.45;;;19.20;55.20;;;;;;5011091;28;20034;-77
2022/05/27 13:20:23;;;;;;;5.88;1.58;;;19.30;56.00;;;;;;5011393;28;20088;-79
2022/05/27 13:23:14;;;;;;;8.80;1.83;;;19.30;55.60;;;;;;5010905;28;20022;-78
2022/05/27 13:25:43;;;;;;;8.13;1.20;;;19.20;55.50;;;;;;5011362;28;20034;-80
2022/05/27 13:28:12;;;;;;;8.00;1.17;;;19.30;55.30;;;;;;5010822;28;20045;-81
2022/05/27 13:31:12;;;;;;;4.47;1.30;;;19.40;55.00;;;;;;5011193;28;20099;-78
2022/05/27 13:33:53;;;;;;;4.47;1.40;;;19.30;54.70;;;;;;4998805;28;20042;-77
2022/05/27 13:36:35;;;;;;;7.85;1.40;;;19.40;55.10;;;;;;5010773;28;20041;-76
2022/05/27 13:39:06;;;;;;;6.88;1.70;;;19.20;55.20;;;;;;5010578;28;20088;-78
2022/05/27 13:41:40;;;;;;;7.13;1.17;;;19.30;55.90;;;;;;5010063;28;20061;-77
2022/05/27 13:44:08;;;;;;;9.57;1.55;;;19.50;56.00;;;;;;5025892;28;20057;-76
2022/05/27 13:46:38;;;;;;;;;;;19.50;56.10;;;;;;5011251;28;20559;-76